Time;durP1;ratioP1;P1;durP2;ratioP2;P2;SDS_P1;SDS_P2;PMS_P1;PMS_P2;Temp;Humidity;BMP_temperature;BMP_pressure;BME280_temperature;BME280_humidity;BME280_pressure;Samples;Min_cycle;Max_cycle;Signal;HPM_P1;HPM_P2
2022/10/04 00:01:58;;;;;;;6.85;2.55;;;;;;;10.52;89.24;99160.61;1608586;87;21045;-84
2022/10/04 00:04:34;;;;;;;4.03;2.05;;;;;;;10.51;90.33;99156.30;1609800;88;21032;-83
2022/10/04 00:07:18;;;;;;;3.50;1.95;;;;;;;10.51;90.39;99158.89;1622725;88;21549;-84
2022/10/04 00:09:57;;;;;;;4.10;1.92;;;;;;;10.50;89.69;99166.30;1617385;88;21021;-83
2022/10/04 00:12:36;;;;;;;3.62;2.00;;;;;;;10.50;90.15;99163.70;1622311;88;21134;-83
2022/10/04 00:15:24;;;;;;;4.72;2.15;;;;;;;10.51;88.84;99173.19;1618624;88;21037;-81
2022/10/04 00:18:12;;;;;;;5.25;2.40;;;;;;;10.50;89.89;99175.39;1615081;88;21013;-80
2022/10/04 00:20:54;;;;;;;4.87;1.90;;;;;;;10.48;90.21;99178.45;1616547;88;21611;-84
2022/10/04 00:23:39;;;;;;;5.62;1.87;;;;;;;10.47;89.37;99158.56;1665300;86;21061;-82
2022/10/04 00:26:24;;;;;;;3.83;2.17;;;;;;;10.49;89.48;99155.93;1651548;86;20985;-84
2022/10/04 00:28:52;;;;;;;8.85;2.17;;;;;;;10.45;89.67;99140.84;1637251;87;21065;-79
2022/10/04 00:31:25;;;;;;;13.30;2.37;;;;;;;10.46;89.42;99150.79;1634990;87;21026;-79
2022/10/04 00:33:56;;;;;;;;;;;;;;;10.45;89.11;99155.59;1647783;87;21021;-83
2022/10/04 00:36:32;;;;;;;6.47;1.75;;;;;;;10.44;89.70;99162.97;1642470;87;20100;-81
2022/10/04 00:39:16;;;;;;;3.47;1.60;;;;;;;10.37;89.98;99164.87;1665348;86;20966;-83
2022/10/04 00:41:52;;;;;;;4.03;1.50;;;;;;;10.37;89.23;99166.17;1648961;86;21054;-83
2022/10/04 00:44:32;;;;;;;5.90;1.65;;;;;;;10.35;89.75;99153.20;1636739;87;21013;-81
2022/10/04 00:47:02;;;;;;;2.50;1.62;;;;;;;10.36;88.88;99150.15;1636144;87;21541;-82
2022/10/04 00:49:39;;;;;;;2.80;1.40;;;;;;;10.39;88.56;99156.59;1616225;88;21056;-83
2022/10/04 00:52:12;;;;;;;3.37;1.50;;;;;;;10.34;88.81;99159.72;1634609;87;21502;-86
2022/10/04 00:54:45;;;;;;;2.95;1.70;;;;;;;10.34;88.69;99151.92;1642514;87;21017;-83
2022/10/04 00:57:24;;;;;;;4.87;1.30;;;;;;;10.35;88.58;99160.16;1634045;87;21020;-80
2022/10/04 00:59:56;;;;;;;2.20;1.37;;;;;;;10.38;87.89;99159.22;1643538;87;21037;-81
2022/10/04 01:02:59;;;;;;;3.37;1.40;;;;;;;10.34;88.26;99161.02;1632651;86;21069;-80
2022/10/04 01:05:38;;;;;;;5.40;1.62;;;;;;;10.35;87.75;99162.30;1630415;87;21027;-81
2022/10/04 01:08:30;;;;;;;3.58;1.42;;;;;;;10.34;87.88;99159.30;1636856;87;21616;-79
2022/10/04 01:11:06;;;;;;;2.33;1.45;;;;;;;10.38;88.27;99163.11;1621192;87;21055;-84
2022/10/04 01:13:42;;;;;;;4.05;1.70;;;;;;;10.42;87.90;99162.16;1616748;88;21023;-83
2022/10/04 01:16:28;;;;;;;7.72;1.37;;;;;;;10.45;87.83;99152.55;1621758;88;21006;-81
2022/10/04 01:19:17;;;;;;;2.72;1.12;;;;;;;10.45;87.89;99160.34;1618306;88;20967;-85
2022/10/04 01:21:46;;;;;;;2.12;1.17;;;;;;;10.45;87.45;99151.70;1665052;86;20990;-82
2022/10/04 01:24:19;;;;;;;3.30;0.98;;;;;;;10.44;87.07;99143.47;1592767;88;21035;-83
2022/10/04 01:26:46;;;;;;;;;;;;;;;10.45;86.60;99151.24;1640034;87;21561;-83
2022/10/04 01:29:25;;;;;;;3.45;1.10;;;;;;;10.39;86.70;99158.34;1639777;86;20123;-82
2022/10/04 01:31:56;;;;;;;3.02;1.32;;;;;;;10.41;86.49;99163.06;1643827;87;21038;-83
2022/10/04 01:34:28;;;;;;;5.42;1.10;;;;;;;10.35;86.72;99157.55;1635982;87;21486;-85
2022/10/04 01:36:58;;;;;;;2.33;1.12;;;;;;;10.35;86.64;99151.05;1644380;87;21510;-81
2022/10/04 01:39:27;;;;;;;3.00;1.00;;;;;;;10.34;86.45;99150.21;1644267;87;21006;-82
2022/10/04 01:42:15;;;;;;;1.85;1.05;;;;;;;10.30;86.66;99161.53;1642085;87;21014;-81
2022/10/04 01:45:09;;;;;;;3.90;1.00;;;;;;;10.30;86.38;99158.09;1644304;86;20998;-82
2022/10/04 01:47:59;;;;;;;1.37;1.20;;;;;;;10.32;86.31;99158.91;1640384;87;21042;-80
2022/10/04 01:50:41;;;;;;;3.75;1.00;;;;;;;10.32;85.98;99157.16;1641421;87;21011;-81
2022/10/04 01:53:14;;;;;;;1.87;1.10;;;;;;;10.32;85.79;99160.20;1667081;86;21504;-83
2022/10/04 01:55:49;;;;;;;1.15;0.90;;;;;;;10.31;85.83;99158.06;1681483;85;21009;-83
2022/10/04 01:58:27;;;;;;;2.33;1.15;;;;;;;10.31;85.67;99162.41;1684604;85;20994;-79
2022/10/04 02:01:18;;;;;;;1.77;1.12;;;;;;;10.33;85.53;99165.83;1624366;86;21000;-80
2022/10/04 02:04:02;;;;;;;1.87;1.02;;;;;;;10.37;85.30;99167.92;1636946;87;21054;-85
2022/10/04 02:06:37;;;;;;;1.98;1.20;;;;;;;10.41;85.56;99160.00;1639606;87;21033;-83
2022/10/04 02:09:18;;;;;;;2.47;1.20;;;;;;;10.48;85.15;99158.95;1637531;87;21647;-81
2022/10/04 02:11:52;;;;;;;2.92;1.30;;;;;;;10.51;85.78;99163.24;1624137;86;21465;-80
2022/10/04 02:14:24;;;;;;;4.80;1.30;;;;;;;10.57;86.08;99173.50;1666758;85;21523;-82
2022/10/04 02:16:52;;;;;;;4.03;1.00;;;;;;;10.60;85.66;99169.50;1661984;86;20986;-81
2022/10/04 02:19:24;;;;;;;2.45;1.20;;;;;;;10.65;85.74;99169.41;1666933;86;21031;-82
2022/10/04 02:21:54;;;;;;;2.15;1.10;;;;;;;10.68;85.02;99168.90;1659826;86;21045;-79
2022/10/04 02:24:21;;;;;;;2.40;1.17;;;;;;;10.67;84.96;99169.78;1673271;86;21021;-80
2022/10/04 02:26:52;;;;;;;2.08;1.20;;;;;;;10.70;84.65;99175.34;1664996;85;21029;-85
2022/10/04 02:29:21;;;;;;;2.30;1.20;;;;;;;10.74;84.42;99170.47;1651519;87;21014;-81
2022/10/04 02:34:38;;;;;;;3.85;1.60;;;;;;;10.77;85.11;99176.91;1636889;87;21530;-84
2022/10/04 02:37:07;;;;;;;4.62;1.90;;;;;;;10.73;85.37;99179.18;1620071;87;21483;-81
2022/10/04 02:39:45;;;;;;;3.62;1.77;;;;;;;10.71;85.75;99177.06;1650877;87;20975;-81
2022/10/04 02:42:38;;;;;;;4.12;2.08;;;;;;;10.66;86.38;99178.91;1644891;87;21026;-82
2022/10/04 02:45:26;;;;;;;3.58;1.70;;;;;;;10.67;86.00;99181.93;1650353;86;21014;-80
2022/10/04 02:48:05;;;;;;;5.58;2.05;;;;;;;10.64;85.56;99184.59;1634193;87;21010;-80
2022/10/04 02:50:38;;;;;;;2.12;1.20;;;;;;;10.64;85.11;99180.69;1651167;87;21019;-81
2022/10/04 02:53:32;;;;;;;10.15;2.22;;;;;;;10.59;83.66;99174.77;1646041;87;21022;-83
2022/10/04 02:56:02;;;;;;;5.30;1.70;;;;;;;10.66;84.27;99176.30;1644769;87;21015;-81
2022/10/04 02:58:31;;;;;;;7.83;2.45;;;;;;;10.63;84.71;99177.25;1647802;86;21054;-81
2022/10/04 03:01:00;;;;;;;7.92;2.25;;;;;;;10.64;84.56;99170.29;1644560;86;21499;-80
2022/10/04 03:03:38;;;;;;;9.75;2.02;;;;;;;10.60;85.08;99169.95;1645122;87;21055;-82
2022/10/04 03:06:13;;;;;;;4.83;1.95;;;;;;;10.59;84.78;99179.52;1679455;85;20993;-81
2022/10/04 03:09:00;;;;;;;7.92;2.15;;;;;;;10.61;84.57;99180.33;1639356;86;21032;-79
2022/10/04 03:11:35;;;;;;;3.45;2.00;;;;;;;10.56;85.05;99191.27;1626180;87;21812;-83
2022/10/04 03:14:09;;;;;;;5.25;2.10;;;;;;;10.54;85.28;99187.84;1633663;86;21045;-84
2022/10/04 03:16:39;;;;;;;5.30;2.83;;;;;;;10.53;84.70;99191.36;1674567;86;21131;-82
2022/10/04 03:19:08;;;;;;;3.83;2.30;;;;;;;10.51;85.01;99201.78;1673136;86;20994;-80
2022/10/04 03:21:39;;;;;;;5.25;2.10;;;;;;;10.50;84.93;99196.19;1674319;86;21044;-81
2022/10/04 03:24:09;;;;;;;7.55;2.40;;;;;;;10.50;84.64;99200.52;1634124;86;21169;-80
2022/10/04 03:26:41;;;;;;;6.83;2.52;;;;;;;10.47;85.33;99199.30;1644904;86;21107;-82
2022/10/04 03:29:12;;;;;;;3.25;2.20;;;;;;;10.44;85.32;99198.05;1647044;87;20983;-81
2022/10/04 03:31:47;;;;;;;8.95;2.30;;;;;;;10.34;85.85;99198.70;1649502;87;20995;-83
2022/10/04 03:34:22;;;;;;;4.60;2.75;;;;;;;10.33;85.34;99206.95;1654747;86;21006;-82
2022/10/04 03:36:55;;;;;;;5.20;2.30;;;;;;;10.30;85.20;99195.77;1652352;85;21596;-80
2022/10/04 03:39:40;;;;;;;9.57;2.40;;;;;;;10.25;85.28;99197.60;1621716;88;21561;-83
2022/10/04 03:42:16;;;;;;;6.47;2.45;;;;;;;10.25;85.55;99193.25;1663371;86;21018;-81
2022/10/04 03:44:48;;;;;;;7.22;3.00;;;;;;;10.25;85.91;99182.86;1662658;85;21041;-82
2022/10/04 03:47:35;;;;;;;13.55;5.35;;;;;;;10.24;85.83;99188.92;1672293;86;21090;-85
2022/10/04 03:50:08;;;;;;;20.88;8.43;;;;;;;10.27;85.82;99195.82;1667091;81;21473;-85
2022/10/04 03:52:36;;;;;;;35.03;13.70;;;;;;;10.23;85.80;99187.23;1668269;84;21006;-84
2022/10/04 03:55:08;;;;;;;37.60;15.65;;;;;;;10.21;86.53;99181.22;1668044;86;21018;-84
2022/10/04 03:57:36;;;;;;;8.35;3.70;;;;;;;10.21;86.66;99185.56;1663818;86;21062;-86
2022/10/04 04:00:05;;;;;;;6.10;3.30;;;;;;;10.17;86.67;99189.97;1665841;86;21073;-87
2022/10/04 04:02:51;;;;;;;4.72;2.60;;;;;;;10.13;86.95;99186.58;1664779;84;21074;-81
2022/10/04 04:05:43;;;;;;;4.83;2.22;;;;;;;10.10;86.59;99197.02;1661568;86;21006;-81
2022/10/04 04:08:34;;;;;;;3.85;2.10;;;;;;;9.98;87.22;99197.28;1664598;86;21546;-86
2022/10/04 04:11:04;;;;;;;4.87;2.30;;;;;;;9.94;87.07;99198.23;1662948;86;21056;-86
2022/10/04 04:13:57;;;;;;;5.85;2.10;;;;;;;9.85;87.54;99199.75;1664644;86;21081;-82
2022/10/04 04:16:26;;;;;;;6.03;2.60;;;;;;;9.82;87.57;99210.19;1663803;85;21006;-83
2022/10/04 04:18:58;;;;;;;6.87;2.35;;;;;;;9.74;87.81;99205.98;1658762;85;21029;-83
2022/10/04 04:21:27;;;;;;;10.63;2.60;;;;;;;9.73;89.05;99215.98;1673245;85;20999;-82
2022/10/04 04:24:00;;;;;;;12.58;3.20;;;;;;;9.70;88.89;99217.32;1664490;86;21066;-82
2022/10/04 04:26:39;;;;;;;8.95;2.87;;;;;;;9.70;89.08;99217.32;1663737;85;21086;-81
2022/10/04 04:29:26;;;;;;;7.83;2.87;;;;;;;9.68;88.49;99224.73;1682531;85;21037;-84
2022/10/04 04:32:01;;;;;;;8.58;3.20;;;;;;;9.70;88.75;99229.45;1680678;85;21513;-84
2022/10/04 04:34:33;;;;;;;10.32;3.05;;;;;;;9.69;89.20;99238.98;1673625;85;21022;-78
2022/10/04 04:37:03;;;;;;;7.85;3.02;;;;;;;9.68;88.08;99243.75;1680218;85;21049;-79
2022/10/04 04:39:42;;;;;;;6.35;2.90;;;;;;;9.66;89.98;99246.82;1677554;85;21505;-85
2022/10/04 04:42:22;;;;;;;9.33;3.50;;;;;;;9.67;88.95;99245.08;1687642;84;21645;-86
2022/10/04 04:45:01;;;;;;;8.40;3.80;;;;;;;9.65;90.58;99248.14;1667880;86;21002;-85
2022/10/04 04:47:40;;;;;;;7.10;3.30;;;;;;;9.68;90.50;99250.24;1663840;86;21022;-83
2022/10/04 04:50:18;;;;;;;8.98;3.20;;;;;;;9.71;90.04;99256.69;1662915;86;21030;-84
2022/10/04 04:52:59;;;;;;;5.55;3.10;;;;;;;9.75;91.14;99258.34;1641031;86;21021;-86
2022/10/04 04:55:49;;;;;;;5.95;3.40;;;;;;;9.79;89.99;99266.05;1663342;86;20966;-84
2022/10/04 04:58:21;;;;;;;8.98;3.47;;;;;;;9.79;90.95;99267.35;1650678;86;21010;-83
2022/10/04 05:00:56;;;;;;;11.80;4.12;;;;;;;9.86;90.11;99271.55;1664644;86;21023;-84
2022/10/04 05:03:25;;;;;;;8.40;4.10;;;;;;;9.87;90.70;99275.42;1663558;86;21017;-82
2022/10/04 05:05:53;;;;;;;10.53;3.52;;;;;;;9.92;90.30;99268.38;1660288;86;21824;-81
2022/10/04 05:08:26;;;;;;;10.78;4.20;;;;;;;9.97;90.21;99277.41;1666745;86;21041;-86
2022/10/04 05:11:08;;;;;;;7.55;3.42;;;;;;;10.03;90.50;99284.23;1660716;86;21010;-86
2022/10/04 05:13:47;;;;;;;10.48;3.75;;;;;;;10.07;90.59;99281.53;1653365;86;20971;-83
2022/10/04 05:16:38;;;;;;;13.18;3.80;;;;;;;10.16;89.63;99279.17;1658582;86;21025;-80
2022/10/04 05:19:13;;;;;;;12.45;4.03;;;;;;;10.26;89.52;99280.69;1665990;86;21002;-84
2022/10/04 05:21:45;;;;;;;7.95;3.70;;;;;;;10.34;89.05;99285.77;1661537;86;21470;-83
2022/10/04 05:24:42;;;;;;;10.10;3.25;;;;;;;10.45;88.74;99283.80;1664195;86;21506;-81
2022/10/04 05:27:24;;;;;;;9.55;3.10;;;;;;;10.48;89.56;99277.67;1647924;86;20993;-83
2022/10/04 05:30:16;;;;;;;7.45;3.40;;;;;;;10.58;89.02;99283.53;1630943;87;21026;-83
2022/10/04 05:33:06;;;;;;;5.92;2.52;;;;;;;10.65;88.78;99287.72;1623282;88;21020;-81
2022/10/04 05:36:12;;;;;;;6.75;3.00;;;;;;;10.75;88.37;99290.52;1631247;88;21093;-82
2022/10/04 05:39:04;;;;;;;12.00;3.17;;;;;;;10.77;88.36;99291.34;1625845;88;21013;-82
2022/10/04 05:41:47;;;;;;;7.08;3.05;;;;;;;10.85;87.89;99304.17;1630593;88;21078;-83
2022/10/04 05:44:25;;;;;;;7.07;3.27;;;;;;;10.86;87.61;99309.34;1657341;85;21122;-84
2022/10/04 05:47:00;;;;;;;10.18;3.35;;;;;;;10.84;87.52;99292.91;1651344;85;21543;-83
2022/10/04 05:49:37;;;;;;;6.45;2.87;;;;;;;10.99;87.28;99314.25;1635180;88;21451;-80
2022/10/04 05:52:29;;;;;;;7.50;3.20;;;;;;;11.01;87.08;99312.02;1635064;87;21056;-82
2022/10/04 05:55:28;;;;;;;6.30;3.27;;;;;;;11.01;86.91;99309.88;1619537;88;21024;-80
2022/10/04 05:58:20;;;;;;;8.68;3.00;;;;;;;11.01;86.90;99322.42;1628262;87;21005;-81
2022/10/04 06:01:05;;;;;;;7.00;3.22;;;;;;;11.05;86.99;99325.81;1624071;88;21499;-80
2022/10/04 06:04:11;;;;;;;5.55;2.62;;;;;;;11.06;86.75;99325.79;1621501;88;21030;-83
2022/10/04 06:06:52;;;;;;;7.85;3.02;;;;;;;11.07;86.91;99322.28;1616582;88;21082;-79
2022/10/04 06:09:38;;;;;;;6.70;3.17;;;;;;;11.14;86.83;99332.09;1611924;87;21070;-79
2022/10/04 06:12:17;;;;;;;8.25;2.95;;;;;;;11.18;86.52;99338.96;1634981;86;21021;-79
2022/10/04 06:15:06;;;;;;;5.95;2.77;;;;;;;11.23;86.20;99334.94;1628340;87;21019;-81
2022/10/04 06:17:52;;;;;;;8.93;3.05;;;;;;;11.28;86.26;99339.14;1625062;88;21011;-87
2022/10/04 06:20:47;;;;;;;6.35;2.87;;;;;;;11.27;85.80;99337.87;1630939;88;20987;-83
2022/10/04 06:23:17;;;;;;;10.78;2.50;;;;;;;11.40;85.28;99351.01;1620936;87;21015;-82
2022/10/04 06:25:56;;;;;;;4.87;2.77;;;;;;;11.30;85.08;99356.00;1628276;88;21013;-87
2022/10/04 06:28:40;;;;;;;7.10;2.72;;;;;;;11.28;85.32;99356.06;1630493;87;21075;-86
2022/10/04 06:31:28;;;;;;;9.38;2.92;;;;;;;11.29;85.26;99362.96;1638473;87;20987;-84
2022/10/04 06:34:35;;;;;;;16.40;6.97;;;;;;;11.30;85.23;99364.69;1638079;87;21003;-82
2022/10/04 06:37:33;;;;;;;7.60;2.90;;;;;;;11.31;85.26;99364.23;1654092;86;20981;-80
2022/10/04 06:40:25;;;;;;;8.03;2.85;;;;;;;11.30;85.13;99371.62;1625297;87;21067;-81
2022/10/04 06:43:24;;;;;;;6.95;2.85;;;;;;;11.34;85.13;99372.83;1656883;86;21001;-84
2022/10/04 06:46:15;;;;;;;7.12;2.70;;;;;;;11.23;85.10;99367.02;1637265;86;21038;-80
2022/10/04 06:49:12;;;;;;;7.35;3.02;;;;;;;11.29;84.98;99377.28;1664426;86;20962;-82
2022/10/04 06:52:23;;;;;;;5.87;2.83;;;;;;;11.30;84.90;99387.23;1664799;86;21017;-80
2022/10/04 06:55:20;;;;;;;7.10;3.02;;;;;;;11.16;85.31;99388.88;1666516;86;20998;-83
2022/10/04 06:58:25;;;;;;;7.72;2.95;;;;;;;11.22;85.44;99395.25;1669439;86;21085;-83
2022/10/04 07:01:21;;;;;;;11.80;3.37;;;;;;;11.28;85.13;99400.73;1669117;86;21018;-85
2022/10/04 07:03:54;;;;;;;7.15;2.70;;;;;;;11.23;85.28;99407.80;1668996;86;21113;-82
2022/10/04 07:06:42;;;;;;;7.42;2.70;;;;;;;11.29;85.10;99400.70;1665818;86;21029;-81
2022/10/04 07:09:18;;;;;;;7.55;2.90;;;;;;;11.28;85.19;99400.31;1662554;85;21063;-83
2022/10/04 07:11:59;;;;;;;7.03;3.08;;;;;;;11.35;85.03;99415.33;1669477;86;21034;-80
2022/10/04 07:14:36;;;;;;;8.55;3.10;;;;;;;11.34;84.81;99405.83;1663123;86;21478;-82
2022/10/04 07:17:09;;;;;;;8.53;3.47;;;;;;;11.38;84.86;99404.86;1667131;86;21033;-83
2022/10/04 07:19:42;;;;;;;6.00;2.90;;;;;;;11.42;84.87;99405.61;1657279;85;21562;-83
2022/10/04 07:22:30;;;;;;;9.40;2.98;;;;;;;11.50;84.49;99406.31;1655202;86;21469;-81
2022/10/04 07:25:15;;;;;;;5.25;2.85;;;;;;;11.47;84.64;99402.02;1632111;87;21010;-82
2022/10/04 07:31:21;;;;;;;5.75;2.90;;;;;;;11.58;83.89;99409.59;1640446;86;20995;-82
2022/10/04 07:34:04;;;;;;;8.90;3.30;;;;;;;11.61;83.21;99402.98;1666934;86;21565;-82
2022/10/04 07:36:58;;;;;;;5.42;3.10;;;;;;;11.72;82.67;99408.80;1667545;86;20982;-81
2022/10/04 07:39:39;;;;;;;7.97;3.08;;;;;;;11.79;82.64;99413.85;1635920;86;21029;-85
2022/10/04 07:42:30;;;;;;;6.28;3.02;;;;;;;11.83;82.15;99418.94;1670143;86;21033;-82
2022/10/04 07:45:26;;;;;;;5.67;3.15;;;;;;;11.89;82.46;99420.12;1665336;86;21030;-82
2022/10/04 07:48:18;;;;;;;5.87;3.33;;;;;;;11.88;81.87;99421.45;1670113;86;21506;-85
2022/10/04 07:50:57;;;;;;;7.67;3.52;;;;;;;11.94;81.97;99427.38;1661856;86;21783;-81
2022/10/04 07:53:30;;;;;;;7.40;3.20;;;;;;;12.05;81.97;99428.39;1667101;86;21490;-80
2022/10/04 07:56:15;;;;;;;7.37;3.08;;;;;;;12.06;81.55;99430.13;1668880;86;21014;-82
2022/10/04 07:59:25;;;;;;;7.35;3.50;;;;;;;12.08;81.66;99423.58;1665367;86;21025;-80
2022/10/04 08:02:22;;;;;;;8.28;3.15;;;;;;;12.14;81.77;99422.11;1664137;84;21061;-79
2022/10/04 08:05:24;;;;;;;4.58;3.10;;;;;;;12.16;81.54;99425.53;1653466;86;21022;-84
2022/10/04 08:08:30;;;;;;;5.58;2.15;;;;;;;12.22;81.26;99421.45;1669372;86;20978;-85
2022/10/04 08:11:35;;;;;;;3.83;2.52;;;;;;;12.14;80.20;99421.66;1658684;85;21579;-85
2022/10/04 08:14:43;;;;;;;4.47;2.30;;;;;;;12.17;80.83;99421.16;1666393;85;20995;-82
2022/10/04 08:17:16;;;;;;;5.87;2.83;;;;;;;12.30;80.54;99423.41;1660086;86;21018;-81
2022/10/04 08:19:58;;;;;;;5.30;2.47;;;;;;;12.30;80.21;99426.02;1662499;86;21534;-84
2022/10/04 08:22:33;;;;;;;6.53;3.20;;;;;;;12.37;80.64;99427.99;1670100;86;21829;-83
2022/10/04 08:25:23;;;;;;;6.78;2.70;;;;;;;12.51;80.24;99419.80;1673231;86;21704;-82
2022/10/04 08:31:20;;;;;;;11.83;3.33;;;;;;;12.71;79.67;99426.62;1666408;86;20963;-84
2022/10/04 08:34:17;;;;;;;5.78;3.10;;;;;;;12.83;78.88;99441.51;1665728;86;21114;-81
2022/10/04 08:37:06;;;;;;;6.33;3.02;;;;;;;12.88;78.39;99437.87;1661481;86;21022;-85
2022/10/04 08:39:54;;;;;;;6.35;3.37;;;;;;;12.89;78.73;99450.03;1662856;86;20963;-85
2022/10/04 08:42:33;;;;;;;7.58;2.95;;;;;;;12.89;77.05;99450.03;1656827;85;20947;-81
2022/10/04 08:45:31;;;;;;;4.95;2.75;;;;;;;12.94;78.19;99455.11;1656764;86;20998;-83
2022/10/04 08:48:29;;;;;;;6.72;3.00;;;;;;;13.10;77.55;99447.69;1663194;86;20958;-84
2022/10/04 08:51:17;;;;;;;8.73;3.00;;;;;;;13.28;77.44;99440.59;1658227;86;20987;-81
2022/10/04 08:54:24;;;;;;;5.55;2.47;;;;;;;13.47;76.04;99452.68;1669548;86;21053;-84
2022/10/04 08:57:24;;;;;;;5.83;2.52;;;;;;;13.71;75.87;99451.50;1661987;86;21014;-82
2022/10/04 09:00:20;;;;;;;3.70;2.40;;;;;;;13.83;74.66;99445.88;1667578;86;21664;-80
2022/10/04 09:03:37;;;;;;;4.10;2.33;;;;;;;14.06;74.43;99440.32;1665921;84;21097;-80
2022/10/04 09:06:44;;;;;;;7.83;2.37;;;;;;;14.08;72.49;99452.42;1662940;86;21006;-81
2022/10/04 09:09:43;;;;;;;10.32;3.80;;;;;;;14.16;72.38;99448.70;1664265;86;21082;-83
2022/10/04 09:12:30;;;;;;;5.97;2.55;;;;;;;14.27;73.58;99450.52;1664266;85;21002;-82
2022/10/04 09:15:19;;;;;;;5.28;2.70;;;;;;;14.37;70.91;99458.90;1654731;86;20998;-81
2022/10/04 09:18:15;;;;;;;10.72;3.40;;;;;;;14.39;72.21;99461.00;1667791;86;21022;-84
2022/10/04 09:21:08;;;;;;;4.53;2.80;;;;;;;14.32;70.75;99461.22;1657276;86;21534;-82
2022/10/04 09:24:13;;;;;;;6.05;2.45;;;;;;;14.36;72.30;99459.79;1663681;86;20998;-85
2022/10/04 09:27:01;;;;;;;4.37;2.37;;;;;;;14.56;70.77;99462.58;1656895;86;21093;-83
2022/10/04 09:30:01;;;;;;;3.70;2.22;;;;;;;14.67;70.42;99470.06;1643644;85;20990;-81
2022/10/04 09:33:01;;;;;;;6.10;2.65;;;;;;;14.81;70.25;99465.18;1636931;86;21085;-86
2022/10/04 09:36:06;;;;;;;5.72;2.90;;;;;;;14.83;69.72;99471.67;1645340;87;20994;-83
2022/10/04 09:39:18;;;;;;;5.47;2.55;;;;;;;14.89;70.28;99463.13;1613637;88;20992;-83
2022/10/04 09:42:21;;;;;;;5.87;2.60;;;;;;;14.99;70.87;99470.66;1564947;88;21006;-83
2022/10/04 09:45:32;;;;;;;5.72;2.67;;;;;;;15.05;70.43;99467.80;1638079;87;21013;-83
2022/10/04 09:48:28;;;;;;;4.87;2.15;;;;;;;14.98;69.89;99470.24;1618516;88;20991;-85
2022/10/04 09:51:17;;;;;;;5.70;2.72;;;;;;;14.88;69.41;99478.89;1641878;87;20974;-83
2022/10/04 09:54:43;;;;;;;5.10;2.00;;;;;;;14.70;69.66;99476.48;1624479;88;21466;-83
2022/10/04 09:57:26;;;;;;;5.22;2.50;;;;;;;14.67;70.45;99482.69;1627854;87;21017;-84
2022/10/04 10:00:23;;;;;;;3.92;2.30;;;;;;;14.45;71.47;99479.09;1647291;86;21017;-83
2022/10/04 10:03:17;;;;;;;6.00;2.55;;;;;;;14.38;71.51;99482.36;1605780;87;21136;-83
2022/10/04 10:06:13;;;;;;;5.90;2.27;;;;;;;14.28;71.97;99484.47;1630326;87;21037;-82
2022/10/04 10:09:02;;;;;;;7.70;2.17;;;;;;;14.16;72.21;99484.01;1630592;87;21609;-84
2022/10/04 10:15:12;;;;;;;7.22;3.08;;;;;;;13.81;73.47;99488.65;1634933;87;21505;-85
2022/10/04 10:17:50;;;;;;;6.57;3.50;;;;;;;13.91;74.15;99490.05;1635285;87;21005;-86
2022/10/04 10:20:56;;;;;;;5.45;3.20;;;;;;;13.90;75.22;99479.19;1636999;86;21294;-80
2022/10/04 10:23:47;;;;;;;5.45;2.27;;;;;;;13.88;74.92;99483.61;1636416;87;21034;-84
2022/10/04 10:26:41;;;;;;;5.45;2.58;;;;;;;13.84;74.57;99475.47;1642469;87;20982;-84
2022/10/04 10:29:31;;;;;;;;;;;;;;;13.88;74.27;99480.99;1635876;85;21527;-80
2022/10/04 10:32:10;;;;;;;9.35;3.52;;;;;;;13.84;75.56;99475.47;1638003;87;20119;-84
2022/10/04 10:34:55;;;;;;;6.70;3.55;;;;;;;13.89;74.81;99480.95;1628277;87;21062;-83
2022/10/04 10:37:58;;;;;;;12.82;3.22;;;;;;;13.85;75.45;99480.65;1631947;87;21002;-82
2022/10/04 10:41:18;;;;;;;10.10;4.05;;;;;;;13.83;75.56;99477.23;1636176;87;20982;-82
2022/10/04 10:44:01;;;;;;;5.53;2.90;;;;;;;13.83;75.82;99477.70;1551974;87;21068;-83
2022/10/04 10:47:04;;;;;;;8.95;2.77;;;;;;;13.73;75.92;99481.05;1637669;87;21005;-84
2022/10/04 10:50:04;;;;;;;5.40;3.02;;;;;;;13.70;75.75;99480.67;1604671;89;20969;-83
2022/10/04 10:53:06;;;;;;;5.67;3.20;;;;;;;13.57;76.36;99471.53;1608731;87;21029;-85
2022/10/04 10:56:14;;;;;;;3.80;2.37;;;;;;;13.57;76.98;99470.23;1636851;87;20953;-82
2022/10/04 10:59:10;;;;;;;6.75;3.08;;;;;;;13.72;76.46;99471.48;1633901;86;21021;-85
2022/10/04 11:02:13;;;;;;;6.70;2.33;;;;;;;13.75;76.64;99475.32;1642413;86;21093;-82
2022/10/04 11:05:07;;;;;;;6.75;3.00;;;;;;;13.88;76.10;99467.47;1627760;87;21497;-83
2022/10/04 11:07:55;;;;;;;7.03;2.15;;;;;;;13.87;75.64;99472.77;1635240;86;21489;-86
2022/10/04 11:11:14;;;;;;;3.62;2.10;;;;;;;14.02;75.83;99468.31;1617008;87;21029;-83
2022/10/04 11:14:23;;;;;;;7.28;2.30;;;;;;;14.09;75.49;99475.06;1630111;87;21073;-83
2022/10/04 11:17:24;;;;;;;3.20;1.75;;;;;;;14.19;74.84;99469.08;1627448;87;21065;-85
2022/10/04 11:20:25;;;;;;;2.00;1.17;;;;;;;14.39;73.05;99468.39;1638575;87;20982;-82
2022/10/04 11:23:30;;;;;;;2.42;1.40;;;;;;;14.66;71.39;99476.20;1628510;87;20993;-85
2022/10/04 11:26:46;;;;;;;3.35;1.30;;;;;;;14.87;69.54;99465.42;1640274;86;21478;-82
2022/10/04 11:29:22;;;;;;;2.22;1.20;;;;;;;15.31;69.12;99463.73;1648916;86;21067;-82
2022/10/04 11:32:18;;;;;;;4.90;1.45;;;;;;;15.51;68.62;99471.27;1664591;86;21550;-86
2022/10/04 11:35:18;;;;;;;5.92;1.50;;;;;;;15.70;69.29;99468.79;1664266;86;20982;-80
2022/10/04 11:38:16;;;;;;;5.53;1.62;;;;;;;15.93;66.54;99476.20;1667795;86;21003;-82
2022/10/04 11:41:15;;;;;;;7.08;1.92;;;;;;;16.13;67.25;99480.63;1669969;86;21014;-82
2022/10/04 11:44:13;;;;;;;7.95;2.60;;;;;;;16.17;65.96;99479.11;1665669;86;21569;-83
2022/10/04 11:47:08;;;;;;;5.28;1.57;;;;;;;16.07;65.63;99479.10;1631187;86;21015;-82
2022/10/04 11:49:44;;;;;;;4.75;1.50;;;;;;;15.77;65.71;99486.45;1669411;85;21010;-83
2022/10/04 11:52:49;;;;;;;4.72;1.72;;;;;;;15.80;65.97;99485.88;1673468;85;21165;-82
2022/10/04 11:55:43;;;;;;;4.28;1.75;;;;;;;15.70;66.94;99476.66;1667978;86;20966;-81
2022/10/04 11:58:45;;;;;;;3.37;1.65;;;;;;;15.70;66.41;99484.05;1669013;86;21535;-82
2022/10/04 12:01:46;;;;;;;10.10;1.67;;;;;;;15.77;66.43;99484.68;1658982;86;21038;-82
2022/10/04 12:04:51;;;;;;;4.90;1.50;;;;;;;15.86;65.93;99480.39;1663654;85;21018;-82
2022/10/04 12:07:51;;;;;;;3.35;1.50;;;;;;;15.77;64.55;99482.06;1666011;86;21082;-83
2022/10/04 12:10:35;;;;;;;2.83;1.27;;;;;;;15.97;64.74;99479.09;1658178;86;21002;-84
2022/10/04 12:13:39;;;;;;;;;;;;;;;16.08;65.57;99484.76;1664016;85;20961;-84
2022/10/04 12:16:28;;;;;;;;;;;;;;;16.06;63.68;99482.19;1665309;86;20150;-85
2022/10/04 12:19:30;;;;;;;3.15;1.75;;;;;;;16.33;64.12;99481.94;1665486;86;20140;-85
2022/10/04 12:22:15;;;;;;;2.85;1.60;;;;;;;16.27;64.45;99487.02;1608497;86;21034;-82
2022/10/04 12:25:07;;;;;;;3.22;1.22;;;;;;;16.69;61.17;99481.27;1670486;84;21537;-84
2022/10/04 12:27:56;;;;;;;4.78;1.77;;;;;;;17.02;61.69;99478.09;1651885;86;21036;-83
2022/10/04 12:30:43;;;;;;;3.55;1.20;;;;;;;17.12;57.94;99482.00;1636098;86;21187;-82
2022/10/04 12:33:43;;;;;;;2.83;1.40;;;;;;;17.27;59.40;99478.67;1664071;86;21037;-82
2022/10/04 12:36:35;;;;;;;4.67;1.17;;;;;;;17.64;58.69;99476.92;1665823;86;21021;-81
2022/10/04 12:39:23;;;;;;;3.65;1.20;;;;;;;18.08;57.47;99471.75;1668386;86;21053;-79
2022/10/04 12:42:14;;;;;;;1.37;0.90;;;;;;;18.27;54.63;99473.01;1646552;86;21628;-79
2022/10/04 12:44:58;;;;;;;4.12;1.20;;;;;;;18.05;50.49;99485.92;1655590;86;21589;-81
2022/10/04 12:48:08;;;;;;;2.10;1.10;;;;;;;17.98;53.79;99481.88;1667748;86;21057;-81
2022/10/04 12:50:47;;;;;;;2.67;0.90;;;;;;;17.69;53.17;99485.45;1663792;86;21030;-80
2022/10/04 12:54:08;;;;;;;2.80;1.07;;;;;;;17.25;52.68;99489.72;1644351;86;21033;-80
2022/10/04 12:56:50;;;;;;;2.08;0.90;;;;;;;16.95;53.48;99492.41;1672642;86;21479;-80
2022/10/04 12:59:47;;;;;;;4.35;1.10;;;;;;;16.99;54.04;99487.41;1622908;86;21030;-79
2022/10/04 13:02:43;;;;;;;4.33;1.12;;;;;;;16.94;54.60;99501.23;1671084;86;21057;-80
2022/10/04 13:05:25;;;;;;;5.45;1.30;;;;;;;16.78;54.36;99496.62;1663811;85;21041;-80
2022/10/04 13:08:30;;;;;;;1.87;1.10;;;;;;;16.63;53.38;99494.22;1657095;86;21017;-80
2022/10/04 13:11:23;;;;;;;3.42;1.35;;;;;;;16.57;54.81;99498.86;1656449;85;21073;-83
2022/10/04 13:14:24;;;;;;;2.52;1.25;;;;;;;16.50;54.21;99506.16;1659777;85;21577;-81
2022/10/04 13:17:16;;;;;;;2.33;1.47;;;;;;;16.48;54.01;99514.56;1661115;86;21053;-84